OIBL  Bandar Lengeh  Airport

Bandar Lengeh, Iran

Add Bookmark
Status IATA
Operational BDH
Latitude Longitude
26° 31' 55" N 54° 49' 29" E
26.532000 54.824799
Local (DST + 5) UTC (GMT + 4)
Mar 30, 2015 03:07 Mar 30, 2015 10:37
Sunrise-Sunset Local UTC
Begin Civil Twilight 06:19 01:49
Sunrise 06:42 02:12
Sunset 07:07 14:37
End Civil Twilight 07:31 15:01

Current Weather

METAR Observed VFR
OIBL 301000Z 21008KT CAVOK 27/19 Q1011 Mon, Mar 30, 2015 @ 10:00 UTC
(37 Minutes ago)
Visual Flight Rules
Wind Visibility Clouds Conditions
210° at 8 knots (15 kph) 10 km or more
  • Clear skies
  • No significant weather
Temperatures Readings Precipitation
Current Temp 27°C (81°F)
Dewpoint 19°C (66°F)
Heat Index 28°C (83°F)
Humidity 62%
Altimeter 29.85"Hg
Sea Level Pressure 1011mb
Field Elevation 45.93'
None Recorded

Additional weather within a 92.6km radius of OIBL

Map ICAO Location
OIBS 74.8km S (202°)
OIBA 75.7km S (164°)
OIBK 83.9km W (270°)

24 Hour Weather History

Loading
-

24 Hour Weather Graphs

Loading
-

CheckWX.com is intended as a tool to help pilots better visualize weather data. It is not intended as a substitute for an official weather briefing obtained from a Flight Service Station. CheckWX.com does not meet the FAA requirements for an official pre-flight weather briefing. Therefore, it's important that pilots still call and obtain an official FSS pre-flight weather briefing.